Time;durP1;ratioP1;P1;durP2;ratioP2;P2;SDS_P1;SDS_P2;PMS_P1;PMS_P2;Temp;Humidity;BMP_temperature;BMP_pressure;BME280_temperature;BME280_humidity;BME280_pressure;Samples;Min_cycle;Max_cycle;Signal;HPM_P1;HPM_P2
2023/08/24 00:00:50;;;;;;;4.70;4.00;;;;;;;25.63;100.00;100227.84;5005899;28;20418;-52
2023/08/24 00:03:22;;;;;;;7.87;5.13;;;;;;;25.68;100.00;100220.31;4996293;28;20188;-54
2023/08/24 00:05:54;;;;;;;7.07;5.17;;;;;;;25.78;100.00;100205.19;5023935;28;20045;-54
2023/08/24 00:08:25;;;;;;;5.60;4.43;;;;;;;25.84;100.00;100201.19;5014960;28;20052;-54
2023/08/24 00:10:56;;;;;;;6.83;4.57;;;;;;;25.96;100.00;100202.03;5018743;28;20072;-55
2023/08/24 00:13:26;;;;;;;6.20;4.97;;;;;;;26.06;100.00;100197.66;5025501;28;20508;-55
2023/08/24 00:15:57;;;;;;;7.00;4.70;;;;;;;26.16;100.00;100177.16;5015241;28;20053;-53
2023/08/24 00:18:28;;;;;;;6.73;5.20;;;;;;;26.26;100.00;100182.63;5025373;28;20053;-53
2023/08/24 00:21:00;;;;;;;8.17;5.83;;;;;;;26.30;100.00;100177.84;5015233;28;20072;-54
2023/08/24 00:23:31;;;;;;;5.90;5.20;;;;;;;26.36;100.00;100177.31;5025274;28;20049;-56
2023/08/24 00:26:01;;;;;;;9.47;5.90;;;;;;;26.36;100.00;100171.94;5003502;28;20396;-55
2023/08/24 00:28:32;;;;;;;8.03;6.23;;;;;;;26.40;100.00;100146.63;5006417;28;20049;-54
2023/08/24 00:31:02;;;;;;;7.50;5.27;;;;;;;26.56;100.00;100152.41;4996218;28;20524;-55
2023/08/24 00:33:33;;;;;;;6.27;5.23;;;;;;;26.49;100.00;100119.06;5006434;28;20372;-54
2023/08/24 00:36:07;;;;;;;6.03;4.93;;;;;;;26.99;100.00;100142.50;4996359;28;20080;-57
2023/08/24 00:38:38;;;;;;;5.90;4.70;;;;;;;26.96;100.00;100129.34;5005749;28;20164;-54
2023/08/24 00:41:09;;;;;;;6.43;4.53;;;;;;;26.80;100.00;100128.00;4996063;28;20132;-55
2023/08/24 00:43:40;;;;;;;4.67;3.77;;;;;;;26.84;100.00;100133.97;5006119;28;20045;-55
2023/08/24 00:46:10;;;;;;;4.03;3.53;;;;;;;26.80;100.00;100148.59;4995429;28;20354;-56
2023/08/24 00:48:41;;;;;;;4.77;4.27;;;;;;;26.77;100.00;100170.31;5005551;28;20138;-55
2023/08/24 00:51:14;;;;;;;6.90;4.63;;;;;;;26.72;100.00;100167.19;4995396;28;20136;-56
2023/08/24 00:53:44;;;;;;;5.13;4.07;;;;;;;26.68;100.00;100166.56;5005310;28;20045;-54
2023/08/24 00:56:15;;;;;;;4.90;3.90;;;;;;;26.49;100.00;100140.50;4995582;28;20061;-54
2023/08/24 00:58:48;;;;;;;9.30;3.90;;;;;;;26.65;100.00;100140.88;5005404;28;20364;-54
2023/08/24 01:01:20;;;;;;;3.83;3.10;;;;;;;26.90;100.00;100154.88;4995666;28;20065;-54
2023/08/24 01:03:51;;;;;;;6.63;3.60;;;;;;;26.62;100.00;100081.38;5007304;28;20103;-55
2023/08/24 01:06:26;;;;;;;3.70;2.93;;;;;;;27.16;100.00;100149.06;4995600;28;20526;-56
2023/08/24 01:08:57;;;;;;;4.33;3.00;;;;;;;27.07;100.00;100134.63;5012108;28;20093;-56
2023/08/24 01:11:35;;;;;;;3.53;2.60;;;;;;;27.30;100.00;100151.41;5025128;28;20033;-55
2023/08/24 01:14:15;;;;;;;3.30;2.60;;;;;;;27.45;100.00;100150.03;5015911;28;20044;-55
2023/08/24 01:16:48;;;;;;;3.57;2.63;;;;;;;27.62;100.00;100161.13;5025892;28;20083;-55
2023/08/24 01:19:36;;;;;;;6.23;2.70;;;;;;;27.65;100.00;100144.72;5015720;28;20136;-60
2023/08/24 01:22:19;;;;;;;3.75;2.10;;;;;;;27.69;100.00;100136.28;5009581;28;20149;-55
2023/08/24 01:25:01;;;;;;;3.07;2.07;;;;;;;27.60;100.00;100136.25;4999244;28;20385;-56
2023/08/24 01:27:35;;;;;;;3.23;2.10;;;;;;;27.27;100.00;100108.75;4981851;28;20073;-54
2023/08/24 01:30:07;;;;;;;3.00;1.80;;;;;;;26.85;100.00;100068.63;4993797;28;20140;-54
2023/08/24 01:32:38;;;;;;;2.53;2.00;;;;;;;26.99;100.00;100119.22;5005293;28;20107;-54
2023/08/24 01:35:11;;;;;;;3.20;2.13;;;;;;;27.00;100.00;100150.41;4995661;28;20069;-54
2023/08/24 01:37:41;;;;;;;3.40;2.10;;;;;;;27.02;100.00;100145.75;5011122;28;20055;-56
2023/08/24 01:40:18;;;;;;;2.67;2.33;;;;;;;26.96;100.00;100150.78;5015187;28;20053;-54
2023/08/24 01:42:58;;;;;;;2.67;2.30;;;;;;;26.91;100.00;100153.91;5025034;28;20414;-54
2023/08/24 01:45:32;;;;;;;2.80;2.20;;;;;;;26.73;100.00;100131.34;5014406;28;20098;-55
2023/08/24 01:48:04;;;;;;;4.17;2.40;;;;;;;26.81;100.00;100161.88;5014969;28;20041;-54
2023/08/24 01:50:36;;;;;;;2.90;2.27;;;;;;;26.77;100.00;100154.22;5025034;28;20049;-55
2023/08/24 01:53:06;;;;;;;3.70;2.63;;;;;;;26.75;100.00;100148.16;5014993;28;20053;-54
2023/08/24 01:55:37;;;;;;;3.50;2.60;;;;;;;26.66;100.00;100158.69;5025093;28;20048;-55
2023/08/24 01:58:10;;;;;;;4.60;3.10;;;;;;;26.68;100.00;100156.72;5010939;28;20098;-55
2023/08/24 02:00:40;;;;;;;6.27;3.50;;;;;;;26.71;100.00;100165.47;5004643;28;20144;-55
2023/08/24 02:03:11;;;;;;;5.57;3.50;;;;;;;26.67;100.00;100149.66;5005322;28;20052;-54
2023/08/24 02:05:43;;;;;;;5.20;3.50;;;;;;;26.67;100.00;100160.38;5021342;28;20349;-55
2023/08/24 02:08:14;;;;;;;5.77;4.07;;;;;;;26.66;100.00;100158.69;5014624;28;20507;-57
2023/08/24 02:10:44;;;;;;;9.03;4.37;;;;;;;26.66;100.00;100169.41;5027775;28;20131;-54
2023/08/24 02:13:17;;;;;;;7.23;4.50;;;;;;;26.59;100.00;100146.78;5017908;28;20125;-55
2023/08/24 02:15:47;;;;;;;6.60;4.20;;;;;;;26.68;100.00;100156.72;5019987;28;20434;-55
2023/08/24 02:18:18;;;;;;;7.93;5.40;;;;;;;26.79;100.00;100147.75;5002550;28;20588;-55
2023/08/24 02:20:49;;;;;;;11.73;6.03;;;;;;;26.88;100.00;100146.97;5008375;28;20042;-54
2023/08/24 02:23:19;;;;;;;7.60;4.73;;;;;;;26.98;100.00;100156.88;4990168;28;20057;-55
2023/08/24 02:25:50;;;;;;;6.20;4.57;;;;;;;26.94;100.00;100161.66;5010936;28;20065;-55
2023/08/24 02:28:22;;;;;;;8.60;4.63;;;;;;;26.62;100.00;100125.09;4997778;28;20487;-55
2023/08/24 02:30:53;;;;;;;8.17;4.97;;;;;;;26.57;100.00;100170.19;5008200;28;20133;-56
2023/08/24 02:33:23;;;;;;;11.70;5.93;;;;;;;26.49;100.00;100161.91;4978242;28;20055;-54
2023/08/24 02:35:54;;;;;;;7.03;5.10;;;;;;;26.09;100.00;100097.47;5004813;28;20449;-53
2023/08/24 02:38:25;;;;;;;8.30;5.53;;;;;;;26.02;100.00;100097.97;4981917;28;20068;-55
2023/08/24 02:41:06;;;;;;;11.17;5.00;;;;;;;26.27;100.00;100156.66;4998462;28;20061;-56
2023/08/24 02:43:39;;;;;;;10.60;5.80;;;;;;;26.17;100.00;100157.44;5007778;28;20136;-54
2023/08/24 02:46:11;;;;;;;10.47;4.97;;;;;;;25.96;100.00;100127.94;4997625;28;20119;-55
2023/08/24 02:48:42;;;;;;;9.70;5.47;;;;;;;26.14;100.00;100152.34;5007143;28;20075;-55
2023/08/24 02:51:13;;;;;;;10.70;5.50;;;;;;;26.18;100.00;100151.09;4997953;28;20149;-56
2023/08/24 02:53:43;;;;;;;8.07;5.63;;;;;;;26.31;100.00;100158.09;5007735;28;20127;-57
2023/08/24 02:56:15;;;;;;;7.33;4.87;;;;;;;26.19;100.00;100154.63;5001295;28;20538;-54
2023/08/24 02:58:47;;;;;;;12.47;5.47;;;;;;;26.18;100.00;100156.44;5019489;28;20099;-56
2023/08/24 03:01:18;;;;;;;6.83;4.93;;;;;;;26.10;100.00;100161.59;5017467;28;20047;-55
2023/08/24 03:03:48;;;;;;;6.60;4.70;;;;;;;25.96;100.00;100160.09;5025916;28;20075;-55
2023/08/24 03:06:19;;;;;;;6.73;4.83;;;;;;;25.82;100.00;100158.50;4997264;28;20077;-54
2023/08/24 03:08:50;;;;;;;6.37;4.70;;;;;;;25.76;100.00;100153.66;5022530;28;20064;-56
2023/08/24 03:11:21;;;;;;;8.30;4.37;;;;;;;25.79;100.00;100165.94;5016129;28;20475;-56
2023/08/24 03:13:54;;;;;;;6.03;4.17;;;;;;;25.82;100.00;100163.84;5023192;28;20064;-56
2023/08/24 03:16:25;;;;;;;7.73;3.73;;;;;;;25.86;100.00;100174.31;5012091;28;20489;-56
2023/08/24 03:18:55;;;;;;;6.40;3.97;;;;;;;25.85;100.00;100169.94;5015415;28;20061;-56
2023/08/24 03:21:26;;;;;;;5.30;3.40;;;;;;;25.83;100.00;100168.25;5009777;28;20096;-57
2023/08/24 03:23:57;;;;;;;4.83;3.10;;;;;;;25.71;100.00;100160.34;4991151;28;20037;-56
2023/08/24 03:26:33;;;;;;;3.63;3.13;;;;;;;25.69;100.00;100173.84;5002183;28;20463;-57
2023/08/24 03:29:06;;;;;;;4.87;3.30;;;;;;;25.65;100.00;100172.41;5001155;28;20049;-57
2023/08/24 03:31:37;;;;;;;5.93;2.97;;;;;;;25.54;100.00;100175.09;5022681;28;20127;-56
2023/08/24 03:34:08;;;;;;;3.70;3.17;;;;;;;25.48;100.00;100172.91;5013035;28;20416;-57
2023/08/24 03:36:39;;;;;;;6.13;2.80;;;;;;;25.42;100.00;100165.38;5022403;28;20162;-56
2023/08/24 03:39:10;;;;;;;4.20;3.33;;;;;;;25.42;100.00;100165.38;5012009;28;20048;-57
2023/08/24 03:41:42;;;;;;;4.97;2.90;;;;;;;25.47;100.00;100157.84;5021981;28;20051;-57
2023/08/24 03:44:14;;;;;;;5.60;3.23;;;;;;;25.54;100.00;100161.72;5011911;28;20084;-57
2023/08/24 03:46:45;;;;;;;4.43;3.30;;;;;;;25.64;100.00;100170.69;5022961;28;20076;-58
2023/08/24 03:49:16;;;;;;;3.67;2.70;;;;;;;25.78;100.00;100170.41;5012915;28;20060;-58
2023/08/24 03:51:49;;;;;;;2.77;2.27;;;;;;;25.81;100.00;100167.50;5021870;28;20122;-57
2023/08/24 03:54:21;;;;;;;3.53;2.60;;;;;;;25.79;100.00;100158.75;5011559;28;20033;-57
2023/08/24 03:56:51;;;;;;;3.93;2.60;;;;;;;25.76;100.00;100169.72;5021750;28;20083;-57
2023/08/24 03:59:25;;;;;;;4.90;2.30;;;;;;;25.74;100.00;100160.94;5011363;28;20514;-57
2023/08/24 04:01:56;;;;;;;4.40;2.67;;;;;;;25.70;100.00;100162.16;5028906;28;20051;-59
2023/08/24 04:04:26;;;;;;;5.70;3.00;;;;;;;25.69;100.00;100160.47;5053758;28;20060;-59
2023/08/24 04:06:57;;;;;;;3.93;2.57;;;;;;;25.66;100.00;100162.53;5050255;28;20527;-59
2023/08/24 04:09:27;;;;;;;4.87;2.53;;;;;;;25.60;100.00;100158.53;5039743;28;20041;-59
2023/08/24 04:11:59;;;;;;;4.20;2.43;;;;;;;25.53;100.00;100141.28;5020401;28;20139;-58
2023/08/24 04:14:31;;;;;;;5.30;2.63;;;;;;;25.48;100.00;100144.31;5032000;28;20114;-59
2023/08/24 04:17:02;;;;;;;4.60;2.30;;;;;;;25.36;100.00;100153.31;5021520;28;20148;-58
2023/08/24 04:19:34;;;;;;;3.50;2.53;;;;;;;25.45;100.00;100165.13;5032338;28;20522;-59
2023/08/24 04:22:04;;;;;;;5.47;2.67;;;;;;;25.43;100.00;100156.38;5022859;28;20079;-59
2023/08/24 04:24:35;;;;;;;4.23;2.40;;;;;;;25.40;100.00;100163.66;5031326;28;20130;-58
2023/08/24 04:27:06;;;;;;;2.70;2.20;;;;;;;25.45;100.00;100170.47;5021608;28;20127;-58
2023/08/24 04:29:39;;;;;;;3.10;1.80;;;;;;;25.48;100.00;100170.22;5031765;28;20076;-58
2023/08/24 04:32:10;;;;;;;6.13;1.93;;;;;;;25.44;100.00;100179.50;5019937;28;20527;-59
2023/08/24 04:34:40;;;;;;;3.17;2.07;;;;;;;25.45;100.00;100175.81;5041671;28;20402;-58
2023/08/24 04:37:11;;;;;;;4.53;1.80;;;;;;;25.47;100.00;100156.00;5023401;28;20400;-59
2023/08/24 04:39:41;;;;;;;3.80;2.10;;;;;;;25.47;100.00;100147.13;5030386;28;20041;-59
2023/08/24 04:42:12;;;;;;;3.73;2.00;;;;;;;25.45;100.00;100149.91;5020467;28;20036;-57
2023/08/24 04:44:44;;;;;;;4.50;1.90;;;;;;;25.53;100.00;100157.31;5026831;28;20531;-58
2023/08/24 04:47:16;;;;;;;5.73;1.80;;;;;;;25.56;100.00;100152.59;5020531;28;20036;-57
2023/08/24 04:49:46;;;;;;;4.93;1.93;;;;;;;25.59;100.00;100152.34;5041537;28;20037;-57
2023/08/24 04:52:17;;;;;;;5.33;1.83;;;;;;;25.62;100.00;100159.28;5020305;28;20052;-57
2023/08/24 04:54:47;;;;;;;3.30;1.90;;;;;;;25.63;100.00;100147.56;5030641;28;20128;-57
2023/08/24 04:57:19;;;;;;;2.23;1.97;;;;;;;25.48;100.00;100119.41;5023236;28;20087;-57
2023/08/24 04:59:54;;;;;;;3.40;2.00;;;;;;;25.79;100.00;100137.34;5041421;28;20341;-58
2023/08/24 05:02:24;;;;;;;3.13;2.30;;;;;;;25.94;100.00;100139.75;5028499;28;20045;-57
2023/08/24 05:04:55;;;;;;;3.90;2.17;;;;;;;26.07;100.00;100129.72;5026674;28;20377;-57
2023/08/24 05:07:26;;;;;;;2.30;2.00;;;;;;;26.17;100.00;100151.22;5029979;28;20043;-56
2023/08/24 05:09:57;;;;;;;3.47;1.87;;;;;;;26.25;100.00;100133.53;5019780;28;20047;-56
2023/08/24 05:12:29;;;;;;;4.60;1.80;;;;;;;26.31;100.00;100125.94;5030556;28;20045;-57
2023/08/24 05:15:01;;;;;;;3.13;2.03;;;;;;;26.28;100.00;100111.00;5028379;28;20049;-58
2023/08/24 05:17:32;;;;;;;2.77;2.07;;;;;;;26.27;100.00;100124.53;5049023;28;20069;-55
2023/08/24 05:20:03;;;;;;;4.17;2.03;;;;;;;26.30;100.00;100108.19;5039090;28;20380;-57
2023/08/24 05:22:34;;;;;;;2.43;1.80;;;;;;;26.29;100.00;100093.13;5029799;28;20125;-58
2023/08/24 05:25:06;;;;;;;2.33;1.70;;;;;;;26.29;100.00;100090.44;5020447;28;20041;-57
2023/08/24 05:27:37;;;;;;;5.17;1.77;;;;;;;26.33;100.00;100102.56;5031914;28;20555;-56
2023/08/24 05:30:13;;;;;;;2.70;1.40;;;;;;;26.39;100.00;100107.44;5019874;28;20049;-57
2023/08/24 05:32:44;;;;;;;4.97;1.70;;;;;;;26.46;100.00;100113.97;5030007;28;20497;-59
2023/08/24 05:35:15;;;;;;;4.80;1.90;;;;;;;26.49;100.00;100113.69;5030231;28;20137;-58
2023/08/24 05:37:48;;;;;;;2.70;1.57;;;;;;;26.56;100.00;100096.16;5029422;28;20049;-59
2023/08/24 05:40:19;;;;;;;2.77;1.70;;;;;;;26.50;100.00;100088.59;5029212;28;20080;-57
2023/08/24 05:42:50;;;;;;;2.63;1.67;;;;;;;26.39;100.00;100096.72;5049091;28;20041;-63
2023/08/24 05:45:22;;;;;;;2.57;1.80;;;;;;;26.30;100.00;100092.13;5032314;28;20045;-57
2023/08/24 05:47:55;;;;;;;3.50;1.67;;;;;;;26.25;100.00;100084.47;5028666;28;20452;-60
2023/08/24 05:50:27;;;;;;;2.30;1.63;;;;;;;26.19;100.00;100075.16;5035386;28;20356;-57
2023/08/24 05:52:58;;;;;;;3.57;1.93;;;;;;;26.17;100.00;100071.75;5025776;28;20056;-59
2023/08/24 05:55:29;;;;;;;1.97;1.43;;;;;;;26.14;100.00;100065.81;5056945;28;20076;-57
2023/08/24 05:57:59;;;;;;;2.60;1.60;;;;;;;26.08;100.00;100061.81;5034084;28;20362;-56
2023/08/24 06:00:32;;;;;;;3.73;1.60;;;;;;;26.05;100.00;100062.06;5035407;28;20099;-57
2023/08/24 06:03:04;;;;;;;3.73;1.80;;;;;;;25.98;100.00;100060.88;5025249;28;20106;-57
2023/08/24 06:05:36;;;;;;;4.83;2.00;;;;;;;26.00;100.00;100061.59;5030914;28;20044;-57
2023/08/24 06:08:07;;;;;;;2.20;1.70;;;;;;;26.06;100.00;100085.19;5018343;28;20930;-58
2023/08/24 06:10:38;;;;;;;3.97;2.20;;;;;;;26.07;100.00;100092.25;5033126;28;20102;-58
2023/08/24 06:13:08;;;;;;;5.33;2.30;;;;;;;26.09;100.00;100101.00;5043505;28;20055;-58
2023/08/24 06:15:41;;;;;;;4.47;2.40;;;;;;;26.05;100.00;100115.63;5033659;28;20047;-56
2023/08/24 06:18:12;;;;;;;5.43;2.43;;;;;;;25.85;100.00;100084.28;5022771;28;20053;-58
2023/08/24 06:20:43;;;;;;;4.50;1.93;;;;;;;25.96;100.00;100111.88;5035260;28;20123;-58
2023/08/24 06:23:14;;;;;;;2.63;1.60;;;;;;;25.85;100.00;100116.41;5043414;28;20052;-56
2023/08/24 06:25:46;;;;;;;5.33;2.30;;;;;;;25.78;100.00;100108.84;5054355;28;20076;-57
2023/08/24 06:28:16;;;;;;;4.33;2.17;;;;;;;25.70;100.00;100100.63;5032519;28;20103;-57
2023/08/24 06:30:49;;;;;;;4.73;2.43;;;;;;;25.59;100.00;100098.00;5031616;28;20052;-56
2023/08/24 06:33:19;;;;;;;3.70;2.13;;;;;;;25.53;100.00;100110.00;5021591;28;20037;-58
2023/08/24 06:35:50;;;;;;;4.03;2.10;;;;;;;25.46;100.00;100116.88;5031727;28;20056;-58
2023/08/24 06:38:21;;;;;;;4.70;2.50;;;;;;;25.46;100.00;100118.66;5033213;28;20128;-57
2023/08/24 06:40:51;;;;;;;3.63;2.27;;;;;;;25.09;100.00;100073.50;5028599;28;20128;-57
2023/08/24 06:43:22;;;;;;;5.80;2.70;;;;;;;25.36;100.00;100114.09;5022541;28;20072;-56
2023/08/24 06:45:56;;;;;;;6.70;3.07;;;;;;;24.92;100.00;100043.59;5031062;28;20044;-58
2023/08/24 06:48:26;;;;;;;6.67;3.37;;;;;;;25.24;100.00;100099.03;5054672;28;20056;-57
2023/08/24 06:50:57;;;;;;;6.20;2.93;;;;;;;25.21;100.00;100090.38;5032818;28;20053;-57
2023/08/24 06:53:28;;;;;;;7.20;3.07;;;;;;;25.17;100.00;100100.47;5028272;28;20060;-58
2023/08/24 06:56:01;;;;;;;5.47;3.17;;;;;;;25.13;100.00;100074.91;5010453;28;20041;-56
2023/08/24 06:58:32;;;;;;;3.30;2.37;;;;;;;24.86;100.00;100038.75;5031460;28;20128;-57
2023/08/24 07:01:05;;;;;;;6.10;2.97;;;;;;;25.05;100.00;100083.56;5024642;28;20048;-58
2023/08/24 07:03:36;;;;;;;4.40;2.70;;;;;;;25.05;100.00;100085.38;5030761;28;20057;-56
2023/08/24 07:06:11;;;;;;;4.80;3.00;;;;;;;25.06;100.00;100071.91;5032176;28;20470;-56
2023/08/24 07:08:42;;;;;;;3.07;2.60;;;;;;;25.07;100.00;100086.13;5031215;28;20123;-57
2023/08/24 07:11:14;;;;;;;6.47;3.10;;;;;;;25.12;100.00;100094.63;5020778;28;20045;-57
2023/08/24 07:13:45;;;;;;;6.63;3.00;;;;;;;25.13;100.00;100085.63;5033823;28;20068;-57
2023/08/24 07:16:17;;;;;;;4.00;2.70;;;;;;;25.13;100.00;100081.13;5023210;28;20072;-57
2023/08/24 07:18:48;;;;;;;5.20;2.60;;;;;;;25.13;100.00;100074.91;5034426;28;20136;-57
2023/08/24 07:21:19;;;;;;;8.13;2.67;;;;;;;25.13;100.00;100080.28;5043894;28;20072;-56
2023/08/24 07:23:50;;;;;;;5.17;2.40;;;;;;;25.09;100.00;100068.13;5055216;28;20071;-58
2023/08/24 07:26:20;;;;;;;3.80;2.57;;;;;;;25.06;100.00;100068.38;5053250;28;20043;-58
2023/08/24 07:28:51;;;;;;;3.83;2.53;;;;;;;24.98;100.00;100061.81;5043987;28;20143;-58
2023/08/24 07:31:23;;;;;;;5.20;2.60;;;;;;;24.95;100.00;100059.38;5024131;28;20135;-58
2023/08/24 07:33:54;;;;;;;4.63;2.50;;;;;;;25.00;100.00;100074.22;5035130;28;20040;-57
2023/08/24 07:36:25;;;;;;;4.43;2.30;;;;;;;24.93;100.00;100073.84;5024551;28;20052;-59
2023/08/24 07:38:55;;;;;;;6.50;2.40;;;;;;;24.98;100.00;100077.00;5053703;28;20411;-57
2023/08/24 07:41:26;;;;;;;4.37;2.33;;;;;;;24.94;100.00;100081.75;5023765;28;20444;-57
2023/08/24 07:43:57;;;;;;;5.03;2.60;;;;;;;24.93;100.00;100085.38;5025526;28;20044;-57
2023/08/24 07:46:29;;;;;;;11.97;8.10;;;;;;;24.91;100.00;100091.81;5034234;28;20075;-58
2023/08/24 07:49:01;;;;;;;5.37;2.70;;;;;;;24.69;100.00;100060.63;5025722;28;20368;-57
2023/08/24 07:51:32;;;;;;;4.83;2.53;;;;;;;24.83;100.00;100095.09;5048366;28;20077;-57
2023/08/24 07:54:04;;;;;;;3.87;2.50;;;;;;;24.83;100.00;100105.78;5054371;28;20128;-57
2023/08/24 07:56:35;;;;;;;5.50;2.93;;;;;;;24.84;100.00;100112.84;5053563;28;20076;-58
2023/08/24 07:59:06;;;;;;;7.30;3.10;;;;;;;24.82;100.00;100114.78;5054348;28;20041;-57
2023/08/24 08:01:38;;;;;;;5.70;3.07;;;;;;;24.81;100.00;100107.75;5033916;28;20053;-57
2023/08/24 08:04:09;;;;;;;7.20;2.23;;;;;;;24.75;100.00;100100.19;5024074;28;20375;-57
2023/08/24 08:06:41;;;;;;;4.30;2.80;;;;;;;24.80;100.00;100106.03;5033538;28;20041;-57
2023/08/24 08:09:12;;;;;;;4.50;2.77;;;;;;;24.77;100.00;100105.44;5033740;28;20044;-57
2023/08/24 08:11:43;;;;;;;5.23;3.23;;;;;;;24.77;100.00;100106.28;5042792;28;20051;-57
2023/08/24 08:14:14;;;;;;;5.53;3.30;;;;;;;24.75;100.00;100108.22;5023154;28;20120;-57
2023/08/24 08:16:46;;;;;;;5.33;3.70;;;;;;;24.76;100.00;100104.56;5034265;28;20128;-58
2023/08/24 08:19:18;;;;;;;5.33;2.97;;;;;;;24.71;100.00;100112.09;5024114;28;20061;-58
2023/08/24 08:21:49;;;;;;;4.37;3.13;;;;;;;24.67;100.00;100099.94;5054586;28;20045;-58
2023/08/24 08:24:21;;;;;;;12.57;3.30;;;;;;;24.31;100.00;100027.00;5053591;28;20041;-58
2023/08/24 08:26:55;;;;;;;6.37;3.50;;;;;;;24.67;100.00;100099.94;5030019;28;20576;-57
2023/08/24 08:29:26;;;;;;;4.83;2.73;;;;;;;24.68;100.00;100096.31;5021109;28;20040;-55
2023/08/24 08:31:59;;;;;;;4.73;2.93;;;;;;;24.66;100.00;100083.09;4996081;28;20060;-55
2023/08/24 08:34:30;;;;;;;5.00;3.10;;;;;;;24.66;100.00;100093.78;5020823;28;20063;-57
2023/08/24 08:37:01;;;;;;;6.33;3.03;;;;;;;24.69;100.00;100092.69;5010716;28;20106;-57
2023/08/24 08:39:34;;;;;;;3.80;2.80;;;;;;;24.63;100.00;100087.78;5021103;28;20057;-56
2023/08/24 08:42:05;;;;;;;4.33;2.80;;;;;;;24.63;100.00;100098.47;5002253;28;20111;-57
2023/08/24 08:44:36;;;;;;;4.83;2.90;;;;;;;24.64;100.00;100105.53;5001220;28;20600;-58
2023/08/24 08:47:10;;;;;;;5.43;3.20;;;;;;;24.63;100.00;100109.16;4991623;28;20057;-57
2023/08/24 08:49:43;;;;;;;5.60;2.80;;;;;;;24.62;100.00;100102.97;5008162;28;20128;-56
2023/08/24 08:52:14;;;;;;;6.30;3.10;;;;;;;24.62;100.00;100110.16;5011687;28;20437;-56
2023/08/24 08:54:45;;;;;;;6.97;2.90;;;;;;;24.63;100.00;100109.16;5021054;28;20052;-57
2023/08/24 08:57:18;;;;;;;4.67;2.70;;;;;;;24.60;100.00;100120.09;5011526;28;21237;-57
2023/08/24 08:59:49;;;;;;;3.87;2.47;;;;;;;24.58;100.00;100122.03;5020926;28;20049;-58
2023/08/24 09:02:32;;;;;;;3.20;2.20;;;;;;;24.51;100.00;100111.84;5002317;28;20147;-58
2023/08/24 09:05:08;;;;;;;4.70;2.20;;;;;;;24.55;100.00;100117.78;5010743;28;20115;-57
2023/08/24 09:07:47;;;;;;;5.40;2.17;;;;;;;24.54;100.00;100127.63;5021453;28;20082;-56
2023/08/24 09:10:24;;;;;;;3.23;2.17;;;;;;;24.39;100.00;100107.41;4990806;28;20041;-57
2023/08/24 09:15:54;;;;;;;2.53;2.20;;;;;;;24.34;100.00;100098.88;5017528;28;20064;-57
2023/08/24 09:18:39;;;;;;;5.80;2.20;;;;;;;24.52;100.00;100118.88;4992985;28;20045;-56
2023/08/24 09:21:20;;;;;;;3.67;2.50;;;;;;;24.53;100.00;100125.91;4994519;28;20705;-57
2023/08/24 09:23:56;;;;;;;3.40;2.30;;;;;;;24.18;100.00;100060.97;5020779;28;20056;-56
2023/08/24 09:26:31;;;;;;;4.60;1.80;;;;;;;24.56;100.00;100119.47;4994098;28;20527;-57
2023/08/24 09:29:22;;;;;;;6.10;1.87;;;;;;;24.54;100.00;100111.59;5004012;28;20049;-58
2023/08/24 09:31:53;;;;;;;3.47;2.27;;;;;;;24.54;100.00;100110.75;5025254;28;20063;-56
2023/08/24 09:34:38;;;;;;;3.63;2.00;;;;;;;24.51;100.00;100111.84;5014129;28;20049;-58
2023/08/24 09:37:16;;;;;;;5.13;2.43;;;;;;;24.49;100.00;100124.44;5014677;28;20065;-58
2023/08/24 09:39:49;;;;;;;4.17;1.93;;;;;;;24.39;100.00;100120.75;5024740;28;20057;-58
2023/08/24 09:42:37;;;;;;;5.27;2.33;;;;;;;24.38;100.00;100124.38;5014458;28;20064;-62
2023/08/24 09:45:12;;;;;;;7.27;2.60;;;;;;;24.32;100.00;100127.53;5014370;28;20057;-61
2023/08/24 09:47:54;;;;;;;5.13;2.50;;;;;;;24.25;100.00;100136.97;5023867;28;20049;-59
2023/08/24 09:51:05;;;;;;;4.07;2.30;;;;;;;24.31;100.00;100136.47;5013085;28;20072;-57
2023/08/24 09:53:58;;;;;;;5.33;3.57;;;;;;;24.30;100.00;100129.44;5009091;28;20049;-57
2023/08/24 10:00:30;;;;;;;3.53;2.50;;;;;;;24.17;100.00;100128.69;5014419;28;20534;-62
2023/08/24 10:03:18;;;;;;;6.27;2.57;;;;;;;24.13;100.00;100137.88;4930961;28;20359;-59
2023/08/24 10:06:12;;;;;;;5.85;2.90;;;;;;;24.01;100.00;100132.50;4943313;28;20133;-60
2023/08/24 10:08:54;;;;;;;4.97;2.97;;;;;;;23.98;100.00;100140.72;4942159;28;20043;-57
2023/08/24 10:11:30;;;;;;;6.53;2.80;;;;;;;23.99;100.00;100153.13;4932666;28;20050;-57
2023/08/24 10:14:20;;;;;;;10.23;3.00;;;;;;;24.01;100.00;100150.31;4931240;28;20050;-56
2023/08/24 10:16:59;;;;;;;6.40;3.47;;;;;;;23.93;100.00;100137.53;4938278;28;20117;-58
2023/08/24 10:19:32;;;;;;;7.37;3.07;;;;;;;23.98;100.00;100161.22;4949441;28;20043;-60
2023/08/24 10:22:10;;;;;;;8.03;3.87;;;;;;;23.99;100.00;100153.13;4946038;28;20055;-60
2023/08/24 10:24:50;;;;;;;7.97;3.80;;;;;;;24.00;100.00;100144.13;4955534;28;20062;-60
2023/08/24 10:27:28;;;;;;;8.43;3.80;;;;;;;24.00;100.00;100143.28;4932513;28;20135;-56
2023/08/24 10:30:08;;;;;;;6.70;3.70;;;;;;;23.99;100.00;100146.91;4931322;28;20093;-58
2023/08/24 10:33:03;;;;;;;8.97;3.30;;;;;;;23.99;100.00;100142.44;4925534;28;20463;-59
2023/08/24 10:35:37;;;;;;;4.30;2.53;;;;;;;23.98;100.00;100161.22;4932024;28;20133;-57
2023/08/24 10:42:03;;;;;;;11.13;3.38;;;;;;;23.99;100.00;100165.59;5020435;28;20372;-58
2023/08/24 10:45:02;;;;;;;7.93;3.40;;;;;;;23.95;100.00;100162.31;5003320;28;20042;-59
2023/08/24 10:48:04;;;;;;;7.07;3.40;;;;;;;23.88;100.00;100169.06;4963230;28;20037;-60
2023/08/24 10:51:27;;;;;;;6.13;3.00;;;;;;;23.83;100.00;100157.88;5003734;28;20045;-60
2023/08/24 10:54:54;;;;;;;6.57;3.60;;;;;;;23.80;100.00;100161.63;5013234;28;20498;-59
2023/08/24 10:57:56;;;;;;;8.87;3.57;;;;;;;23.79;100.00;100169.72;4935489;28;20116;-62
2023/08/24 11:07:33;;;;;;;;;;;;;;;;;;;;;
2023/08/24 11:10:21;;;;;;;5.40;2.87;;;;;;;;;;4942790;28;20050;-55
2023/08/24 11:13:13;;;;;;;3.87;2.23;;;;;;;23.00;100.00;100078.50;4946021;28;20082;-55
2023/08/24 11:15:54;;;;;;;7.03;2.60;;;;;;;23.56;100.00;100166.03;4960258;28;20398;-56
2023/08/24 11:18:32;;;;;;;9.23;2.97;;;;;;;23.45;100.00;100148.16;4946833;28;20196;-57
2023/08/24 11:21:08;;;;;;;4.83;2.70;;;;;;;23.62;100.00;100171.78;4949916;28;20073;-57
2023/08/24 11:23:39;;;;;;;8.03;2.60;;;;;;;23.67;100.00;100174.97;4959865;28;20453;-55
2023/08/24 11:26:16;;;;;;;9.77;2.50;;;;;;;23.68;100.00;100176.66;4950304;28;20221;-55
2023/08/24 11:29:06;;;;;;;5.80;2.30;;;;;;;23.66;100.00;100183.94;4960711;28;20052;-56
2023/08/24 11:32:09;;;;;;;6.20;2.80;;;;;;;23.67;100.00;100180.31;4951919;28;20097;-56
2023/08/24 11:34:43;;;;;;;2.80;2.00;;;;;;;23.67;100.00;100180.31;4985856;28;20041;-57
2023/08/24 11:37:22;;;;;;;6.43;2.77;;;;;;;23.53;100.00;100161.75;5011879;28;20494;-56
2023/08/24 11:39:53;;;;;;;4.25;2.10;;;;;;;23.71;100.00;100185.41;5021766;28;20045;-57
2023/08/24 11:42:27;;;;;;;6.23;2.00;;;;;;;23.68;100.00;100187.31;5010708;28;20053;-56
2023/08/24 11:44:58;;;;;;;4.60;1.90;;;;;;;23.67;100.00;100196.31;5017541;28;20511;-58
2023/08/24 11:47:31;;;;;;;6.97;1.97;;;;;;;23.64;100.00;100207.19;5022040;28;20057;-57
2023/08/24 11:50:04;;;;;;;6.87;2.00;;;;;;;23.66;100.00;100210.63;5011972;28;20040;-58
2023/08/24 11:52:40;;;;;;;10.60;2.10;;;;;;;23.64;100.00;100206.34;5022297;28;20051;-57
2023/08/24 11:55:13;;;;;;;2.70;1.70;;;;;;;23.58;100.00;100204.97;5011079;28;20147;-57
2023/08/24 11:57:46;;;;;;;4.07;1.83;;;;;;;23.63;100.00;100205.47;5021182;28;20049;-56
2023/08/24 12:00:20;;;;;;;6.57;1.87;;;;;;;23.62;100.00;100217.13;5011234;28;20419;-56
2023/08/24 12:02:52;;;;;;;3.53;1.70;;;;;;;23.60;100.00;100216.38;5021618;28;20367;-57
2023/08/24 12:05:25;;;;;;;5.10;1.73;;;;;;;23.63;100.00;100233.97;4999056;28;20150;-57
2023/08/24 12:07:57;;;;;;;4.27;1.90;;;;;;;23.61;100.00;100228.78;4995301;28;20060;-57